AirNav   Pilot Hours Calculator
 
 596 users online  

81MO Bates County Hospital Heliport
Butler, Missouri, USA

GOING TO BUTLER?


FAA INFORMATION EFFECTIVE 05 DECEMBER 2019

Location

FAA Identifier: 81MO
Lat/Long: 38-14-54.0000N 094-20-32.0000W
38-14.900000N 094-20.533333W
38.2483333,-94.3422222
(estimated)
Elevation: 820 ft. / 250 m (estimated)
Variation: 05E (1985)
Time zone: UTC -6 (UTC -5 during Daylight Saving Time)
Zip code: 64730

Heliport Operations

Heliport use: Private use, MEDICAL.
Activation date: 04/1983
Control tower: no
ARTCC: KANSAS CITY CENTER
FSS: COLUMBIA FLIGHT SERVICE STATION
Attendance: CONTINUOUS
Wind indicator: lighted
Segmented circle: no

Nearby radio navigation aids

VOR radial/distance  VOR name  Freq  Var
BUMr095/7.0BUTLER VORTAC115.9007E

 
NDB name  Hdg/Dist  Freq  Var  ID
GOLDEN VALLEY257/31.738801EGLY --. .-.. -.--

Heliport Services

Runway Information

Helipad H1

Dimensions: 60 x 60 ft. / 18 x 18 m
Surface: asphalt/concrete
Runway edge lights: PERI
Latitude: 38-14.900000N
Longitude: 094-20.533333W
Elevation: 820.0 ft.
Traffic pattern: leftleft

Heliport Ownership and Management from official FAA records

Ownership: Publicly-owned
Owner: BATES COUNTY HOSPITAL
615 W NURSERY
BUTLER, MO 64730
Phone 660-200-7000
Manager: JOHN P. BUSTLE MD FAAFT
P.O. BOX 370
BUTLER, MO 64730
Phone 660-200-7000

Additional Remarks

A52-H1 BLDG 60 FT NW; PLINES 90 FT SOUTH; 60 FT LGTD COMM TWR 90 FT NW; 480 FT TWR 2000 FT SOUTHWEST OF HELI.
FOR CD CTC KANSAS CITY ARTCC AT 913-254-8508.

Instrument Procedures

There are no published instrument procedures at 81MO.

Some nearby airports with instrument procedures:

KBUM - Butler Memorial Airport (2 nm N)
KLRY - Lawrence Smith Memorial Airport (22 nm N)
KNVD - Nevada Municipal Airport (24 nm S)
KGLY - Clinton Regional Airport (32 nm E)
K81 - Miami County Airport (32 nm NW)
 
Loc | Ops | Rwys | IFR | FBO | Links
Com | Nav | Svcs | Stats | Notes

Kansas City Aviation Department
 
Area around 81MO (Bates County Hospital Heliport)
 
Road maps at: MapQuest Bing Google
 
Aerial photo
No photo
 
Sectional chart

 
Airport distance calculator
Flying to Bates County Hospital Heliport? Find the distance to fly.

From to 81MO

Sunrise and sunset
Times for 07-Dec-2019
 Local
(UTC-6)
 Zulu
(UTC)
Morning civil twilight06:5212:52
Sunrise07:2213:22
Sunset16:5622:56
Evening civil twilight17:2523:25

Current date and time
Zulu (UTC)  07-Dec-2019 09:02:12
Local (UTC-6)  07-Dec-2019 03:02:12
 
METAR
KLRY 
22nm N 
070855Z AUTO 00000KT 10SM CLR M04/M05 A3038 RMK AO2
KGLY 
32nm E 
070835Z AUTO 00000KT 10SM CLR M05/M07 A3038 RMK AO2
KOJC 
40nm NW 
070853Z AUTO 00000KT 10SM CLR M04/M05 A3034 RMK AO2 SLP283 T10391050 56009
KRCM 
41nm NE 
070835Z AUTO RMK AO2 TSNO PWINO
KIXD 
43nm NW 
070853Z AUTO 18003KT 10SM CLR M04/M07 A3035 RMK AO2 SLP286 T10441067 56008
KLXT 
43nm N 
070853Z AUTO 14005KT 10SM CLR M01/M06 A3035 RMK AO2 SLP285 T10111061 56011
TAF
KIXD 
43nm NW 
070535Z 0706/0806 17009KT P6SM SCT250
KSZL 
47nm NE 
070300Z 0703/0809 VRB06KT 9999 SKC QNH3005INS BECMG 0807/0808 18006KT 9999 BKN010 QNH3001INS TX08/0720Z TNM03/0712Z
NOTAMs
Click for the latest NOTAMs
NOTAMs are issued by the DoD/FAA and will open in a separate window not controlled by AirNav.

 

 
 

Would you like to see your business listed on this page?

 If your business provides an interesting product or service to pilots, flight crews, aircraft, or users of the Bates County Hospital Heliport, you should consider listing it here.  To start the listing process, click on the button below
 
Add a business
 

Other Pages about Bates County Hospital Heliport

Update a link
 
Copyright © AirNav, LLC. All rights reserved. Privacy Policy  Contact